createdAt,value
2017-10-15T00:00:49.036Z,102018.41
2017-10-15T00:03:17.654Z,102015.78
2017-10-15T00:05:46.301Z,102015.81
2017-10-15T00:08:14.950Z,102009.80
2017-10-15T00:10:43.614Z,102001.62
2017-10-15T00:13:12.381Z,102008.51
2017-10-15T00:15:41.001Z,102011.09
2017-10-15T00:18:09.609Z,102013.27
2017-10-15T00:20:38.253Z,102013.30
2017-10-15T00:23:06.877Z,102021.48
2017-10-15T00:25:35.548Z,102016.31
2017-10-15T00:28:04.168Z,102015.89
2017-10-15T00:30:32.795Z,102007.75
2017-10-15T00:33:01.505Z,102015.93
2017-10-15T00:35:30.126Z,102022.44
2017-10-15T00:37:58.804Z,102015.05
2017-10-15T00:40:27.690Z,102014.18
2017-10-15T00:42:56.190Z,102015.13
2017-10-15T00:45:28.281Z,102012.09
2017-10-15T00:47:57.355Z,102010.34
2017-10-15T00:50:26.046Z,102004.44
2017-10-15T00:52:54.674Z,102000.48
2017-10-15T00:55:22.991Z,102004.81
2017-10-15T00:57:51.394Z,101994.05
2017-10-15T01:00:20.013Z,101994.47
2017-10-15T01:02:48.639Z,101987.12
2017-10-15T01:05:17.310Z,101979.39
2017-10-15T01:07:45.918Z,101970.30
2017-10-15T01:10:14.625Z,101967.30
2017-10-15T01:12:43.282Z,101968.17
2017-10-15T01:15:11.955Z,101969.92
2017-10-15T01:17:40.652Z,101976.84
2017-10-15T01:20:09.303Z,101982.55
2017-10-15T01:22:37.974Z,101991.61
2017-10-15T01:25:06.398Z,101985.18
2017-10-15T01:27:38.529Z,101991.73
2017-10-15T01:30:06.919Z,101990.02
2017-10-15T01:32:35.222Z,101996.56
2017-10-15T01:35:03.531Z,101994.92
2017-10-15T01:37:35.893Z,101995.42
2017-10-15T01:40:04.207Z,101998.89
2017-10-15T01:42:32.871Z,101992.08
2017-10-15T01:45:01.607Z,101993.83
2017-10-15T01:47:33.852Z,101999.95
2017-10-15T01:50:02.216Z,101995.73
2017-10-15T01:52:30.532Z,101987.59
2017-10-15T01:54:58.858Z,101988.54
2017-10-15T01:57:27.215Z,101982.56
2017-10-15T01:59:55.516Z,101975.33
2017-10-15T02:02:24.181Z,101983.63
2017-10-15T02:04:52.801Z,101987.17
2017-10-15T02:07:21.464Z,101986.36
2017-10-15T02:09:50.107Z,101979.55
2017-10-15T02:12:18.772Z,101980.95
2017-10-15T02:14:47.405Z,101989.25
2017-10-15T02:17:16.087Z,101989.33
2017-10-15T02:19:44.709Z,101992.02
2017-10-15T02:22:13.349Z,101982.63
2017-10-15T02:24:42.023Z,101987.04
2017-10-15T02:27:10.648Z,101994.91
2017-10-15T02:29:39.274Z,101992.85
2017-10-15T02:32:07.935Z,101989.01
2017-10-15T02:34:36.589Z,101989.55
2017-10-15T02:37:05.212Z,101990.94
2017-10-15T02:39:33.869Z,101993.22
2017-10-15T02:42:02.544Z,101992.87
2017-10-15T02:44:31.026Z,101987.77
2017-10-15T02:46:59.641Z,101991.31
2017-10-15T02:49:28.188Z,101987.54
2017-10-15T02:51:56.823Z,101980.77
2017-10-15T02:54:25.454Z,101979.66
2017-10-15T02:56:54.119Z,101977.11
2017-10-15T02:59:22.824Z,101992.34
2017-10-15T03:01:51.439Z,101987.70
2017-10-15T03:04:20.109Z,101986.91
2017-10-15T03:06:48.750Z,101990.47
2017-10-15T03:09:17.448Z,101990.96
2017-10-15T03:11:46.122Z,101989.35
2017-10-15T03:14:14.792Z,101991.17
2017-10-15T03:16:43.402Z,101988.73
2017-10-15T03:19:12.096Z,101990.51
2017-10-15T03:21:40.719Z,101990.62
2017-10-15T03:24:09.390Z,101993.69
2017-10-15T03:26:38.058Z,101997.70
2017-10-15T03:29:06.728Z,102001.69
2017-10-15T03:31:35.349Z,101992.30
2017-10-15T03:34:05.725Z,101998.44
2017-10-15T03:36:34.341Z,101996.87
2017-10-15T03:39:03.011Z,101992.64
2017-10-15T03:41:31.636Z,101994.45
2017-10-15T03:44:00.312Z,101997.53
2017-10-15T03:46:28.939Z,102000.18
2017-10-15T03:48:57.551Z,102003.35
2017-10-15T03:51:26.255Z,102011.14
2017-10-15T03:53:54.932Z,102002.62
2017-10-15T03:56:23.605Z,102002.69
2017-10-15T03:58:52.112Z,102000.56
2017-10-15T04:01:20.654Z,101996.37
2017-10-15T04:03:49.124Z,101998.11
2017-10-15T04:06:17.741Z,102005.50
2017-10-15T04:08:46.400Z,102009.45
2017-10-15T04:11:15.027Z,102005.71
2017-10-15T04:13:43.717Z,102011.33
2017-10-15T04:16:12.403Z,102011.39
2017-10-15T04:18:40.943Z,102008.88
2017-10-15T04:21:09.464Z,102014.50
2017-10-15T04:23:37.947Z,102016.73
2017-10-15T04:26:06.615Z,102020.66
2017-10-15T04:28:35.256Z,102021.60
2017-10-15T04:31:03.908Z,102021.22
2017-10-15T04:33:32.554Z,102027.25
2017-10-15T04:36:01.219Z,102024.25
2017-10-15T04:38:29.839Z,102029.48
2017-10-15T04:40:58.509Z,102026.09
2017-10-15T04:43:27.134Z,102026.09
2017-10-15T04:45:55.795Z,102023.97
2017-10-15T04:48:24.427Z,102028.33
2017-10-15T04:50:53.108Z,102030.48
2017-10-15T04:53:21.754Z,102028.36
2017-10-15T04:55:50.415Z,102028.39
2017-10-15T04:58:19.045Z,102030.55
2017-10-15T05:00:47.683Z,102031.45
2017-10-15T05:03:16.357Z,102029.74
2017-10-15T05:05:44.969Z,102030.61
2017-10-15T05:08:13.626Z,102031.45
2017-10-15T05:10:42.274Z,102029.74
2017-10-15T05:13:10.787Z,102028.48
2017-10-15T05:15:39.414Z,102028.06
2017-10-15T05:18:07.886Z,102028.94
2017-10-15T05:20:36.554Z,102031.55
2017-10-15T05:23:05.177Z,102033.30
2017-10-15T05:25:33.895Z,102025.97
2017-10-15T05:28:02.515Z,102035.45
2017-10-15T05:30:31.187Z,102038.45
2017-10-15T05:32:59.813Z,102039.75
2017-10-15T05:35:28.498Z,102037.63
2017-10-15T05:37:57.165Z,102034.58
2017-10-15T05:40:25.773Z,102027.29
2017-10-15T05:42:54.448Z,102030.33
2017-10-15T05:45:23.145Z,102029.00
2017-10-15T05:47:51.779Z,102029.91
2017-10-15T05:50:20.467Z,102023.91
2017-10-15T05:52:49.118Z,102020.48
2017-10-15T05:55:17.658Z,102031.27
2017-10-15T05:57:46.288Z,102023.55
2017-10-15T06:00:14.914Z,102027.45
2017-10-15T06:02:43.574Z,102027.03
2017-10-15T06:05:12.059Z,102022.78
2017-10-15T06:07:40.743Z,102030.55
2017-10-15T06:10:09.388Z,102026.72
2017-10-15T06:12:38.085Z,102028.45
2017-10-15T06:15:06.710Z,102031.07
2017-10-15T06:17:35.381Z,102030.65
2017-10-15T06:20:04.025Z,102029.39
2017-10-15T06:22:32.699Z,102030.72
2017-10-15T06:25:01.371Z,102030.30
2017-10-15T06:27:33.619Z,102030.36
2017-10-15T06:30:02.096Z,102029.48
2017-10-15T06:32:30.746Z,102028.65
2017-10-15T06:34:59.367Z,102036.39
2017-10-15T06:37:28.049Z,102032.06
2017-10-15T06:39:56.689Z,102029.52
2017-10-15T06:42:25.380Z,102032.52
2017-10-15T06:44:54.058Z,102028.72
2017-10-15T06:47:22.734Z,102034.27
2017-10-15T06:49:51.418Z,102037.23
2017-10-15T06:52:20.080Z,102039.39
2017-10-15T06:54:48.699Z,102034.23
2017-10-15T06:57:17.378Z,102036.78
2017-10-15T06:59:45.994Z,102040.62
2017-10-15T07:02:14.662Z,102043.20
2017-10-15T07:04:43.313Z,102045.30
2017-10-15T07:07:11.962Z,102041.00
2017-10-15T07:09:40.668Z,102037.94
2017-10-15T07:12:09.325Z,102033.65
2017-10-15T07:14:38.037Z,102043.91
2017-10-15T07:17:06.654Z,102042.17
2017-10-15T07:19:35.311Z,102042.59
2017-10-15T07:22:03.966Z,102044.27
2017-10-15T07:24:32.640Z,102040.81
2017-10-15T07:27:01.271Z,102044.66
2017-10-15T07:29:29.950Z,102037.30
2017-10-15T07:31:58.581Z,102037.66
2017-10-15T07:34:27.238Z,102035.48
2017-10-15T07:36:55.949Z,102034.10
2017-10-15T07:39:24.609Z,102037.94
2017-10-15T07:41:53.222Z,102032.26
2017-10-15T07:44:21.843Z,102039.06
2017-10-15T07:46:50.652Z,102036.42
2017-10-15T07:49:19.267Z,102028.58
2017-10-15T07:51:47.931Z,102029.41
2017-10-15T07:54:16.568Z,102026.77
2017-10-15T07:56:45.237Z,102027.54
2017-10-15T07:59:13.854Z,102017.56
2017-10-15T08:01:42.483Z,102021.34
2017-10-15T08:04:11.163Z,102023.02
2017-10-15T08:06:39.776Z,102024.20
2017-10-15T08:09:08.438Z,102028.88
2017-10-15T08:11:37.051Z,102027.08
2017-10-15T08:14:05.707Z,102027.84
2017-10-15T08:16:34.320Z,102033.78
2017-10-15T08:19:03.015Z,102031.09
2017-10-15T08:21:31.684Z,102026.28
2017-10-15T08:24:00.300Z,102027.05
2017-10-15T08:26:28.957Z,102028.66
2017-10-15T08:28:57.586Z,102023.81
2017-10-15T08:31:26.203Z,102021.61
2017-10-15T08:33:54.867Z,102021.48
2017-10-15T08:36:23.546Z,102027.00
2017-10-15T08:38:52.222Z,102020.82
2017-10-15T08:41:20.899Z,102022.02
2017-10-15T08:43:49.510Z,102017.26
2017-10-15T08:46:21.214Z,102019.32
2017-10-15T08:48:49.857Z,102017.92
2017-10-15T08:51:18.526Z,102008.77
2017-10-15T08:53:47.170Z,102015.16
2017-10-15T08:56:15.808Z,102009.89
2017-10-15T08:58:44.488Z,102004.69
2017-10-15T09:01:13.154Z,102004.62
2017-10-15T09:03:41.852Z,102000.64
2017-10-15T09:06:10.463Z,102001.41
2017-10-15T09:08:39.101Z,101990.58
2017-10-15T09:11:07.779Z,101989.63
2017-10-15T09:13:36.396Z,101989.98
2017-10-15T09:16:05.075Z,101992.91
2017-10-15T09:18:33.711Z,101986.37
2017-10-15T09:21:02.332Z,101988.01
2017-10-15T09:23:30.991Z,101982.73
2017-10-15T09:25:59.622Z,101983.08
2017-10-15T09:28:28.234Z,101986.43
2017-10-15T09:30:56.759Z,101983.73
2017-10-15T09:33:25.285Z,101986.17
2017-10-15T09:35:53.901Z,101976.17
2017-10-15T09:38:22.566Z,101978.66
2017-10-15T09:40:51.193Z,101974.28
2017-10-15T09:43:19.865Z,101975.01
2017-10-15T09:45:48.565Z,101974.48
2017-10-15T09:48:17.236Z,101970.91
2017-10-15T09:50:45.854Z,101972.54
2017-10-15T09:53:14.362Z,101974.56
2017-10-15T09:55:42.997Z,101970.08
2017-10-15T09:58:11.692Z,101964.83
2017-10-15T10:00:40.337Z,101961.25
2017-10-15T10:03:08.972Z,101965.44
2017-10-15T10:05:37.651Z,101955.40
2017-10-15T10:08:06.295Z,101959.13
2017-10-15T10:10:34.948Z,101952.13
2017-10-15T10:13:03.570Z,101948.55
2017-10-15T10:15:32.231Z,101946.65
2017-10-15T10:18:00.860Z,101948.70
2017-10-15T10:20:29.510Z,101943.37
2017-10-15T10:22:58.131Z,101938.03
2017-10-15T10:25:26.795Z,101931.83
2017-10-15T10:27:55.447Z,101929.95
2017-10-15T10:30:24.142Z,101925.50
2017-10-15T10:32:52.751Z,101929.23
2017-10-15T10:35:21.413Z,101926.10
2017-10-15T10:37:50.022Z,101923.36
2017-10-15T10:40:18.734Z,101924.95
2017-10-15T10:42:47.358Z,101921.70
2017-10-15T10:45:15.994Z,101911.27
2017-10-15T10:47:44.663Z,101908.02
2017-10-15T10:50:13.282Z,101906.98
2017-10-15T10:52:41.956Z,101899.09
2017-10-15T10:55:10.608Z,101901.05
2017-10-15T10:57:39.280Z,101893.16
2017-10-15T11:00:07.894Z,101891.23
2017-10-15T11:02:36.516Z,101884.64
2017-10-15T11:05:05.188Z,101880.59
2017-10-15T11:07:36.283Z,101870.52
2017-10-15T11:10:04.968Z,101868.64
2017-10-15T11:12:33.604Z,101862.45
2017-10-15T11:15:02.288Z,101856.61
2017-10-15T11:17:35.278Z,101856.02
2017-10-15T11:20:03.946Z,101854.97
2017-10-15T11:22:32.586Z,101848.28
2017-10-15T11:25:01.265Z,101856.30
2017-10-15T11:27:35.058Z,101844.47
2017-10-15T11:30:03.686Z,101846.88
2017-10-15T11:32:32.310Z,101838.52
2017-10-15T11:35:00.990Z,101848.70
2017-10-15T11:37:29.617Z,101840.34
2017-10-15T11:39:58.306Z,101835.86
2017-10-15T11:42:26.948Z,101833.98
2017-10-15T11:44:55.627Z,101836.02
2017-10-15T11:47:24.243Z,101840.56
2017-10-15T11:49:52.851Z,101830.53
2017-10-15T11:52:21.518Z,101830.76
2017-10-15T11:54:50.133Z,101827.99
2017-10-15T11:57:18.804Z,101823.59
2017-10-15T11:59:47.420Z,101825.14
2017-10-15T12:02:16.103Z,101824.08
2017-10-15T12:04:44.725Z,101823.52
2017-10-15T12:07:13.340Z,101815.61
2017-10-15T12:09:41.991Z,101818.48
2017-10-15T12:12:10.619Z,101810.95
2017-10-15T12:14:39.161Z,101801.68
2017-10-15T12:17:07.771Z,101802.84
2017-10-15T12:19:36.260Z,101800.11
2017-10-15T12:22:04.922Z,101796.51
2017-10-15T12:24:33.534Z,101795.52
2017-10-15T12:27:02.178Z,101791.06
2017-10-15T12:29:30.794Z,101784.91
2017-10-15T12:31:59.438Z,101783.47
2017-10-15T12:34:28.071Z,101785.92
2017-10-15T12:36:56.729Z,101781.80
2017-10-15T12:39:25.378Z,101784.25
2017-10-15T12:41:53.988Z,101776.29
2017-10-15T12:44:22.653Z,101783.50
2017-10-15T12:46:51.293Z,101782.91
2017-10-15T12:49:19.910Z,101777.99
2017-10-15T12:51:48.555Z,101778.22
2017-10-15T12:54:17.166Z,101777.66
2017-10-15T12:56:45.814Z,101779.59
2017-10-15T12:59:14.418Z,101779.05
2017-10-15T13:01:43.068Z,101770.59
2017-10-15T13:04:11.713Z,101766.92
2017-10-15T13:06:40.345Z,101765.39
2017-10-15T13:09:09.015Z,101766.55
2017-10-15T13:11:37.685Z,101765.09
2017-10-15T13:14:06.295Z,101761.89
2017-10-15T13:16:34.947Z,101764.77
2017-10-15T13:19:03.572Z,101753.77
2017-10-15T13:21:32.226Z,101759.22
2017-10-15T13:24:00.693Z,101753.00
2017-10-15T13:26:29.369Z,101749.38
2017-10-15T13:28:57.831Z,101750.05
2017-10-15T13:31:26.456Z,101748.61
2017-10-15T13:33:55.115Z,101748.42
2017-10-15T13:36:23.584Z,101743.08
2017-10-15T13:38:52.193Z,101739.50
2017-10-15T13:41:20.857Z,101735.86
2017-10-15T13:43:49.462Z,101744.29
2017-10-15T13:46:18.112Z,101738.95
2017-10-15T13:48:46.726Z,101730.96
2017-10-15T13:51:15.375Z,101730.43
2017-10-15T13:53:43.980Z,101724.72
2017-10-15T13:56:12.637Z,101721.09
2017-10-15T13:58:41.271Z,101723.47
2017-10-15T14:01:09.807Z,101722.05
2017-10-15T14:03:38.433Z,101720.55
2017-10-15T14:06:06.960Z,101712.98
2017-10-15T14:08:35.451Z,101713.30
2017-10-15T14:11:04.095Z,101706.23
2017-10-15T14:13:32.706Z,101708.30
2017-10-15T14:16:01.358Z,101701.23
2017-10-15T14:18:29.966Z,101697.18
2017-10-15T14:20:58.606Z,101693.65
2017-10-15T14:23:27.265Z,101691.94
2017-10-15T14:25:55.884Z,101693.55
2017-10-15T14:28:24.417Z,101687.78
2017-10-15T14:30:53.026Z,101688.65
2017-10-15T14:33:21.685Z,101688.45
2017-10-15T14:35:50.295Z,101684.86
2017-10-15T14:38:18.917Z,101681.74
2017-10-15T14:40:47.425Z,101688.97
2017-10-15T14:43:15.932Z,101681.64
2017-10-15T14:45:44.466Z,101684.66
2017-10-15T14:48:12.958Z,101680.23
2017-10-15T14:50:41.607Z,101673.27
2017-10-15T14:53:10.216Z,101675.41
2017-10-15T14:55:38.839Z,101672.79
2017-10-15T14:58:07.499Z,101672.27
2017-10-15T15:00:36.061Z,101675.28
2017-10-15T15:03:04.678Z,101674.40
2017-10-15T15:05:33.343Z,101665.25
2017-10-15T15:08:01.811Z,101669.20
2017-10-15T15:10:31.363Z,101666.70
2017-10-15T15:12:59.975Z,101668.00
2017-10-15T15:15:28.643Z,101666.70
2017-10-15T15:17:57.243Z,101664.13
2017-10-15T15:20:25.927Z,101664.54
2017-10-15T15:22:54.579Z,101661.11
2017-10-15T15:25:23.191Z,101664.59
2017-10-15T15:27:51.838Z,101661.58
2017-10-15T15:30:20.456Z,101660.80
2017-10-15T15:32:49.136Z,101656.53
2017-10-15T15:35:17.614Z,101656.16
2017-10-15T15:37:46.599Z,101659.75
2017-10-15T15:40:15.253Z,101663.75
2017-10-15T15:42:43.873Z,101657.77
2017-10-15T15:45:12.556Z,101654.86
2017-10-15T15:47:41.228Z,101658.83
2017-10-15T15:50:09.892Z,101659.81
2017-10-15T15:52:38.393Z,101660.80
2017-10-15T15:55:07.048Z,101662.72
2017-10-15T15:57:35.677Z,101662.45
2017-10-15T16:00:04.044Z,101663.87
2017-10-15T16:02:32.744Z,101666.63
2017-10-15T16:05:01.395Z,101660.33
2017-10-15T16:07:30.044Z,101663.13
2017-10-15T16:09:58.701Z,101660.28
2017-10-15T16:12:27.397Z,101659.56
2017-10-15T16:14:55.915Z,101650.31
2017-10-15T16:17:24.392Z,101661.27
2017-10-15T16:19:53.054Z,101655.83
2017-10-15T16:22:21.691Z,101653.43
2017-10-15T16:24:50.375Z,101657.58
2017-10-15T16:27:19.020Z,101659.97
2017-10-15T16:29:47.681Z,101655.44
2017-10-15T16:32:16.320Z,101661.72
2017-10-15T16:34:45.045Z,101664.52
2017-10-15T16:37:13.657Z,101657.03
2017-10-15T16:39:42.350Z,101667.66
2017-10-15T16:42:10.976Z,101665.22
2017-10-15T16:44:39.591Z,101662.41
2017-10-15T16:47:08.090Z,101670.48
2017-10-15T16:49:36.716Z,101662.49
2017-10-15T16:52:05.394Z,101662.78
2017-10-15T16:54:33.847Z,101661.23
2017-10-15T16:57:02.463Z,101662.35
2017-10-15T16:59:30.982Z,101657.81
2017-10-15T17:01:59.488Z,101664.91
2017-10-15T17:04:28.105Z,101666.05
2017-10-15T17:06:56.629Z,101658.91
2017-10-15T17:09:25.145Z,101662.59
2017-10-15T17:11:53.862Z,101659.82
2017-10-15T17:14:22.501Z,101666.86
2017-10-15T17:16:51.168Z,101662.34
2017-10-15T17:19:19.779Z,101653.92
2017-10-15T17:21:48.350Z,101663.98
2017-10-15T17:24:16.986Z,101669.36
2017-10-15T17:26:45.448Z,101662.11
2017-10-15T17:29:14.102Z,101664.88
2017-10-15T17:31:42.713Z,101665.44
2017-10-15T17:34:11.223Z,101665.16
2017-10-15T17:36:39.692Z,101666.61
2017-10-15T17:39:08.311Z,101662.03
2017-10-15T17:41:37.036Z,101664.34
2017-10-15T17:44:05.650Z,101664.53
2017-10-15T17:46:34.303Z,101670.27
2017-10-15T17:49:02.923Z,101670.00
2017-10-15T17:51:31.574Z,101673.61
2017-10-15T17:54:00.231Z,101679.77
2017-10-15T17:56:28.710Z,101671.70
2017-10-15T17:58:57.236Z,101668.80
2017-10-15T18:01:25.585Z,101673.66
2017-10-15T18:03:54.254Z,101678.52
2017-10-15T18:06:22.911Z,101675.64
2017-10-15T18:08:51.558Z,101676.20
2017-10-15T18:11:20.158Z,101672.41
2017-10-15T18:13:48.822Z,101670.84
2017-10-15T18:16:17.475Z,101669.26
2017-10-15T18:18:46.091Z,101668.56
2017-10-15T18:21:14.702Z,101668.70
2017-10-15T18:23:43.355Z,101660.23
2017-10-15T18:26:11.979Z,101658.70
2017-10-15T18:28:40.672Z,101658.84
2017-10-15T18:31:09.300Z,101658.10
2017-10-15T18:33:37.919Z,101655.64
2017-10-15T18:36:06.577Z,101654.62
2017-10-15T18:38:35.193Z,101656.00
2017-10-15T18:41:03.879Z,101650.09
2017-10-15T18:43:32.550Z,101652.39
2017-10-15T18:46:01.070Z,101651.73
2017-10-15T18:48:29.765Z,101651.91
2017-10-15T18:50:58.239Z,101648.59
2017-10-15T18:53:26.759Z,101637.57
2017-10-15T18:55:55.383Z,101643.34
2017-10-15T18:58:24.037Z,101639.59
2017-10-15T19:00:52.662Z,101633.26
2017-10-15T19:03:21.330Z,101635.07
2017-10-15T19:05:49.939Z,101625.30
2017-10-15T19:08:18.658Z,101628.91
2017-10-15T19:10:47.157Z,101626.03
2017-10-15T19:13:15.817Z,101622.28
2017-10-15T19:15:44.345Z,101623.71
2017-10-15T19:18:12.963Z,101619.13
2017-10-15T19:20:41.470Z,101615.34
2017-10-15T19:23:10.099Z,101612.87
2017-10-15T19:25:38.796Z,101619.06
2017-10-15T19:28:07.405Z,101617.85
2017-10-15T19:30:36.095Z,101612.80
2017-10-15T19:33:04.714Z,101611.18
2017-10-15T19:35:33.323Z,101616.87
2017-10-15T19:38:01.983Z,101613.95
2017-10-15T19:40:30.464Z,101612.74
2017-10-15T19:42:59.132Z,101612.41
2017-10-15T19:45:27.837Z,101612.95
2017-10-15T19:47:56.456Z,101606.57
2017-10-15T19:50:25.117Z,101603.25
2017-10-15T19:52:53.730Z,101602.08
2017-10-15T19:55:22.378Z,101601.29
2017-10-15T19:57:50.854Z,101604.42
2017-10-15T20:00:19.535Z,101602.42
2017-10-15T20:02:48.042Z,101606.31
2017-10-15T20:05:16.558Z,101609.53
2017-10-15T20:07:45.168Z,101610.03
2017-10-15T20:10:13.854Z,101615.25
2017-10-15T20:12:42.505Z,101616.29
2017-10-15T20:15:11.171Z,101611.20
2017-10-15T20:17:39.846Z,101621.64
2017-10-15T20:20:08.491Z,101610.13
2017-10-15T20:22:37.139Z,101611.92
2017-10-15T20:25:05.825Z,101612.84
2017-10-15T20:27:37.460Z,101610.33
2017-10-15T20:30:06.124Z,101610.00
2017-10-15T20:32:34.739Z,101609.64
2017-10-15T20:35:03.360Z,101605.42
2017-10-15T20:37:31.878Z,101603.80
2017-10-15T20:40:00.503Z,101606.88
2017-10-15T20:42:29.128Z,101599.33
2017-10-15T20:44:57.774Z,101599.00
2017-10-15T20:47:26.436Z,101600.75
2017-10-15T20:49:55.061Z,101597.84
2017-10-15T20:52:23.724Z,101598.80
2017-10-15T20:54:52.353Z,101597.17
2017-10-15T20:57:21.022Z,101598.58
2017-10-15T20:59:49.623Z,101597.79
2017-10-15T21:02:18.234Z,101595.25
2017-10-15T21:04:46.895Z,101585.91
2017-10-15T21:07:15.550Z,101583.41
2017-10-15T21:09:44.172Z,101588.66
2017-10-15T21:12:12.850Z,101583.61
2017-10-15T21:14:41.462Z,101580.23
2017-10-15T21:17:10.126Z,101580.74
2017-10-15T21:19:38.743Z,101574.36
2017-10-15T21:22:07.406Z,101577.91
2017-10-15T21:24:36.029Z,101577.95
2017-10-15T21:27:04.680Z,101585.32
2017-10-15T21:29:33.293Z,101582.40
2017-10-15T21:32:01.967Z,101572.57
2017-10-15T21:34:30.587Z,101568.77
2017-10-15T21:36:59.189Z,101569.66
2017-10-15T21:39:27.844Z,101567.95
2017-10-15T21:41:56.460Z,101576.66
2017-10-15T21:44:25.134Z,101576.32
2017-10-15T21:46:53.776Z,101572.91
2017-10-15T21:49:22.425Z,101572.98
2017-10-15T21:51:51.047Z,101568.69
2017-10-15T21:54:19.719Z,101579.48
2017-10-15T21:56:48.346Z,101575.23
2017-10-15T21:59:16.967Z,101573.11
2017-10-15T22:01:45.623Z,101568.86
2017-10-15T22:04:14.284Z,101572.78
2017-10-15T22:06:42.910Z,101564.57
2017-10-15T22:09:11.584Z,101570.66
2017-10-15T22:11:40.196Z,101570.23
2017-10-15T22:14:08.870Z,101571.56
2017-10-15T22:16:37.513Z,101578.06
2017-10-15T22:19:06.129Z,101573.77
2017-10-15T22:21:40.106Z,101571.60
2017-10-15T22:24:08.730Z,101572.06
2017-10-15T22:26:37.352Z,101573.44
2017-10-15T22:29:06.039Z,101571.69
2017-10-15T22:31:34.650Z,101567.85
2017-10-15T22:34:03.256Z,101564.02
2017-10-15T22:36:31.934Z,101563.64
2017-10-15T22:39:00.551Z,101561.47
2017-10-15T22:41:29.155Z,101563.27
2017-10-15T22:43:57.840Z,101558.13
2017-10-15T22:46:26.441Z,101560.34
2017-10-15T22:48:55.050Z,101554.76
2017-10-15T22:51:23.706Z,101553.52
2017-10-15T22:53:52.305Z,101549.76
2017-10-15T22:56:20.955Z,101556.63
2017-10-15T22:58:49.579Z,101558.84
2017-10-15T23:01:18.233Z,101561.46
2017-10-15T23:03:46.844Z,101560.67
2017-10-15T23:06:15.472Z,101565.41
2017-10-15T23:08:44.131Z,101559.00
2017-10-15T23:11:12.746Z,101561.20
2017-10-15T23:13:41.396Z,101566.41
2017-10-15T23:16:10.008Z,101566.91
2017-10-15T23:18:38.664Z,101566.95
2017-10-15T23:21:07.306Z,101566.13
2017-10-15T23:23:35.930Z,101569.66
2017-10-15T23:26:04.594Z,101571.44
2017-10-15T23:28:33.220Z,101570.23
2017-10-15T23:31:01.887Z,101574.19
2017-10-15T23:33:30.408Z,101573.89
2017-10-15T23:35:59.036Z,101575.63
2017-10-15T23:38:27.522Z,101579.59
2017-10-15T23:40:56.186Z,101576.70
2017-10-15T23:43:24.818Z,101574.58
2017-10-15T23:45:53.443Z,101579.41
2017-10-15T23:48:22.151Z,101579.91
2017-10-15T23:50:50.775Z,101577.36
2017-10-15T23:53:19.395Z,101569.35
2017-10-15T23:55:48.063Z,101580.14
2017-10-15T23:58:16.688Z,101578.51
